Hauptseite
METAR-TAF:

METAR-TAF

Flughäfen :

Oslo, Norwegen

Flughafen Oslo-Gardermoen

Breite: 60-12N, Länge: 011-05E, Höhe: 208 m

Beobachtung

Neuester Wetterbericht von vor 15 Minuten, um 08:20 UTC
Wind 5 kt aus Nord/Nordost
Temperatur 13°C
Luftfeuchtigkeit 88%
Luftdruck 1030 hPa
Sichtweite 10 km oder mehr
Aufgelockert bewölkt in der Höhe von 1300 ft
Durchbrochene Bewölkung in der Höhe von 2800 ft

METAR: ENGM 240820Z 02005KT 9999 SCT013 BKN028 13/11 Q1030 TEMPO BKN013

Zeit: 10:35 (08:35 UTC)

Prognose

Gültige Prognose vom 24 um 06 UTC bis 25 um 06 UTC
Wind 8 kt aus Nord/Nordost
Sichtweite 10 km oder mehr
Aufgelockert bewölkt in der Höhe von 800 ft
Durchbrochene Bewölkung in der Höhe von 2000 ft
Zeitweise
vom 24 um 06 UTC bis 25 um 06 UTC
Durchbrochene Bewölkung in der Höhe von 800 ft

TAF: ENGM 2406/2506 03008KT 9999 SCT008 BKN020 TEMPO 2406/2506 BKN008

Wetterbeobachtungen und Prognosen von mehr als 4000 Flughäfen (METAR und TAF Bericht).

Die verfügbaren Stationen werden durch gelbe und rote Markierungen auf der Karte dargestellt.

Führen Sie die Maus auf sie, um den Namen der Station zu sehen.

Darauf klicken, um die Beobachtung von Wetterbeobachtungen und Prognosen zu sehen.

Um die Karte zu ändern : klicken Sie auf den grünen Tasten mit einem schwarzen Kreuz Zum Vergrößern, auf den grünen Button mit einem Gedankenstrich zu verkleinern, oder auf die grünen Pfeile für benachbarte Karten.


METAR-TAF: